createdAt,value
2024-02-18T00:00:09.804Z,47.05
2024-02-18T00:00:23.138Z,42.53
2024-02-18T00:00:56.290Z,27.90
2024-02-18T00:01:29.986Z,20.27
2024-02-18T00:01:44.643Z,19.35
2024-02-18T00:01:58.189Z,17.88
2024-02-18T00:02:11.284Z,18.50
2024-02-18T00:02:24.569Z,19.95
2024-02-18T00:02:37.698Z,20.63
2024-02-18T00:02:50.696Z,22.42
2024-02-18T00:03:03.906Z,21.58
2024-02-18T00:03:17.399Z,18.83
2024-02-18T00:03:31.566Z,15.63
2024-02-18T00:03:44.916Z,13.45
2024-02-18T00:03:58.438Z,12.63
2024-02-18T00:04:13.244Z,10.50
2024-02-18T00:04:26.588Z,10.82
2024-02-18T00:04:39.789Z,11.77
2024-02-18T00:04:53.283Z,11.88
2024-02-18T00:05:07.525Z,10.45
2024-02-18T00:05:22.198Z,9.70
2024-02-18T00:05:36.416Z,8.50
2024-02-18T00:05:49.486Z,7.93
2024-02-18T00:06:02.565Z,9.40
2024-02-18T00:06:15.610Z,8.45
2024-02-18T00:06:28.803Z,6.43
2024-02-18T00:06:42.359Z,5.55
2024-02-18T00:06:55.743Z,5.95
2024-02-18T00:07:08.947Z,6.22
2024-02-18T00:07:22.444Z,6.15
2024-02-18T00:07:37.442Z,6.53
2024-02-18T00:07:50.880Z,7.25
2024-02-18T00:08:04.407Z,6.45
2024-02-18T00:08:17.379Z,5.97
2024-02-18T00:08:30.380Z,6.10
2024-02-18T00:08:43.332Z,6.43
2024-02-18T00:08:56.347Z,6.78
2024-02-18T00:09:09.348Z,6.78
2024-02-18T00:09:22.381Z,6.10
2024-02-18T00:09:36.608Z,6.38
2024-02-18T00:09:49.955Z,6.25
2024-02-18T00:10:03.186Z,6.18
2024-02-18T00:10:16.446Z,6.18
2024-02-18T00:10:29.493Z,6.75
2024-02-18T00:10:42.823Z,6.65
2024-02-18T00:10:55.941Z,6.32
2024-02-18T00:11:09.553Z,6.65
2024-02-18T00:11:22.767Z,6.18
2024-02-18T00:11:37.057Z,6.30
2024-02-18T00:11:50.209Z,6.18
2024-02-18T00:12:03.407Z,5.97
2024-02-18T00:12:16.468Z,6.55
2024-02-18T00:12:29.573Z,6.25
2024-02-18T00:12:42.752Z,5.97
2024-02-18T00:12:55.953Z,6.88
2024-02-18T00:13:10.130Z,7.15
2024-02-18T00:13:23.157Z,6.50
2024-02-18T00:13:38.125Z,6.60
2024-02-18T00:13:51.256Z,7.03
2024-02-18T00:14:04.277Z,7.32
2024-02-18T00:14:17.347Z,6.93
2024-02-18T00:14:30.662Z,6.22
2024-02-18T00:14:44.206Z,6.75
2024-02-18T00:14:57.453Z,7.72
2024-02-18T00:15:12.117Z,8.18
2024-02-18T00:15:25.431Z,7.00
2024-02-18T00:15:38.483Z,6.63
2024-02-18T00:15:51.571Z,7.22
2024-02-18T00:16:05.064Z,7.85
2024-02-18T00:16:18.253Z,8.30
2024-02-18T00:16:32.502Z,8.32
2024-02-18T00:16:45.437Z,7.60
2024-02-18T00:16:59.420Z,7.50
2024-02-18T00:17:13.967Z,7.85
2024-02-18T00:17:26.913Z,7.70
2024-02-18T00:17:39.967Z,6.88
2024-02-18T00:17:52.956Z,6.88
2024-02-18T00:18:06.420Z,7.15
2024-02-18T00:18:19.548Z,7.00
2024-02-18T00:18:33.632Z,6.70
2024-02-18T00:18:46.742Z,7.53
2024-02-18T00:19:00.948Z,7.35
2024-02-18T00:19:14.071Z,6.68
2024-02-18T00:19:27.121Z,7.10
2024-02-18T00:19:40.411Z,7.70
2024-02-18T00:19:53.593Z,8.68
2024-02-18T00:20:07.364Z,9.13
2024-02-18T00:20:21.988Z,9.05
2024-02-18T00:20:36.725Z,9.27
2024-02-18T00:20:50.726Z,9.77
2024-02-18T00:21:03.804Z,10.23
2024-02-18T00:21:18.026Z,9.80
2024-02-18T00:21:31.236Z,10.60
2024-02-18T00:21:44.577Z,11.20
2024-02-18T00:21:58.194Z,12.18
2024-02-18T00:22:11.303Z,12.43
2024-02-18T00:22:25.297Z,13.18
2024-02-18T00:22:38.336Z,12.57
2024-02-18T00:22:51.525Z,12.57
2024-02-18T00:23:04.778Z,11.43
2024-02-18T00:23:17.688Z,10.82
2024-02-18T00:23:30.913Z,10.88
2024-02-18T00:23:43.786Z,10.88
2024-02-18T00:23:58.178Z,10.68
2024-02-18T00:24:12.235Z,11.07
2024-02-18T00:24:25.256Z,10.98
2024-02-18T00:24:38.264Z,10.32
2024-02-18T00:24:52.483Z,10.88
2024-02-18T00:25:07.804Z,11.25
2024-02-18T00:25:21.163Z,12.43
2024-02-18T00:25:34.124Z,12.15
2024-02-18T00:25:47.106Z,10.38
2024-02-18T00:26:01.814Z,9.68
2024-02-18T00:26:15.080Z,10.27
2024-02-18T00:26:38.580Z,11.65
2024-02-18T00:27:01.820Z,13.25
2024-02-18T00:27:14.997Z,12.48
2024-02-18T00:27:28.046Z,11.55
2024-02-18T00:27:42.115Z,12.20
2024-02-18T00:27:55.179Z,13.93
2024-02-18T00:28:08.858Z,15.00
2024-02-18T00:28:21.990Z,14.05
2024-02-18T00:28:34.946Z,15.70
2024-02-18T00:28:47.941Z,16.63
2024-02-18T00:29:01.619Z,15.63
2024-02-18T00:29:14.664Z,15.85
2024-02-18T00:29:27.835Z,16.25
2024-02-18T00:29:41.839Z,16.58
2024-02-18T00:29:55.113Z,17.20
2024-02-18T00:30:08.859Z,17.33
2024-02-18T00:30:21.993Z,16.45
2024-02-18T00:30:35.200Z,17.15
2024-02-18T00:30:50.716Z,17.80
2024-02-18T00:31:03.835Z,19.25
2024-02-18T00:31:16.982Z,19.67
2024-02-18T00:31:30.951Z,18.05
2024-02-18T00:31:43.893Z,17.17
2024-02-18T00:31:56.912Z,17.58
2024-02-18T00:32:09.949Z,18.35
2024-02-18T00:32:23.645Z,18.42
2024-02-18T00:32:36.756Z,17.73
2024-02-18T00:32:49.810Z,18.13
2024-02-18T00:33:04.683Z,18.23
2024-02-18T00:33:17.848Z,17.40
2024-02-18T00:33:31.107Z,16.17
2024-02-18T00:33:44.405Z,14.77
2024-02-18T00:33:57.619Z,16.38
2024-02-18T00:34:10.806Z,17.83
2024-02-18T00:34:24.973Z,17.65
2024-02-18T00:34:38.672Z,16.55
2024-02-18T00:34:52.936Z,16.38
2024-02-18T00:35:07.158Z,15.55
2024-02-18T00:35:21.623Z,15.63
2024-02-18T00:35:34.649Z,15.50
2024-02-18T00:35:47.771Z,14.23
2024-02-18T00:36:01.078Z,14.10
2024-02-18T00:36:15.090Z,14.40
2024-02-18T00:36:28.665Z,14.70
2024-02-18T00:36:42.749Z,14.05
2024-02-18T00:36:56.102Z,13.35
2024-02-18T00:37:09.108Z,13.20
2024-02-18T00:37:22.172Z,13.04
2024-02-18T00:37:35.213Z,12.63
2024-02-18T00:37:48.188Z,11.73
2024-02-18T00:38:01.357Z,12.07
2024-02-18T00:38:14.406Z,12.48
2024-02-18T00:38:29.109Z,13.30
2024-02-18T00:38:43.194Z,13.57
2024-02-18T00:38:56.285Z,13.25
2024-02-18T00:39:10.932Z,15.40
2024-02-18T00:39:24.399Z,16.10
2024-02-18T00:39:37.499Z,14.88
2024-02-18T00:39:50.529Z,13.88
2024-02-18T00:40:04.139Z,14.60
2024-02-18T00:40:18.390Z,17.20
2024-02-18T00:40:31.383Z,18.27
2024-02-18T00:40:44.420Z,18.08
2024-02-18T00:40:58.161Z,18.33
2024-02-18T00:41:12.300Z,20.02
2024-02-18T00:41:25.312Z,20.60
2024-02-18T00:41:38.277Z,19.95
2024-02-18T00:41:51.284Z,18.17
2024-02-18T00:42:07.521Z,17.55
2024-02-18T00:42:20.523Z,17.48
2024-02-18T00:42:33.570Z,18.00
2024-02-18T00:42:47.001Z,19.35
2024-02-18T00:43:00.447Z,22.08
2024-02-18T00:43:13.585Z,22.50
2024-02-18T00:43:26.645Z,20.77
2024-02-18T00:43:39.813Z,18.08
2024-02-18T00:43:52.829Z,18.67
2024-02-18T00:44:06.852Z,19.42
2024-02-18T00:44:20.940Z,19.00
2024-02-18T00:44:33.852Z,18.35
2024-02-18T00:44:46.846Z,19.67
2024-02-18T00:44:59.868Z,19.75
2024-02-18T00:45:14.251Z,19.63
2024-02-18T00:45:27.141Z,20.77
2024-02-18T00:45:40.147Z,20.48
2024-02-18T00:45:53.186Z,19.67
2024-02-18T00:46:18.276Z,19.00
2024-02-18T00:46:47.754Z,21.38
2024-02-18T00:47:07.721Z,20.58
2024-02-18T00:47:20.835Z,19.30
2024-02-18T00:47:33.805Z,19.48
2024-02-18T00:47:47.887Z,18.95
2024-02-18T00:48:01.012Z,18.45
2024-02-18T00:48:14.419Z,19.42
2024-02-18T00:48:27.679Z,20.35
2024-02-18T00:48:41.386Z,20.52
2024-02-18T00:48:54.890Z,20.45
2024-02-18T00:49:07.896Z,19.90
2024-02-18T00:49:20.967Z,19.50
2024-02-18T00:49:35.149Z,19.35
2024-02-18T00:49:50.982Z,18.60
2024-02-18T00:50:04.364Z,19.38
2024-02-18T00:50:17.726Z,19.45
2024-02-18T00:50:32.038Z,20.67
2024-02-18T00:50:44.997Z,21.13
2024-02-18T00:50:57.968Z,20.73
2024-02-18T00:51:10.905Z,21.13
2024-02-18T00:51:24.065Z,20.90
2024-02-18T00:51:38.134Z,19.40
2024-02-18T00:51:51.188Z,17.33
2024-02-18T00:52:05.040Z,18.10
2024-02-18T00:52:18.229Z,18.67
2024-02-18T00:52:31.260Z,18.13
2024-02-18T00:52:44.195Z,17.67
2024-02-18T00:52:57.139Z,16.73
2024-02-18T00:53:10.428Z,16.42
2024-02-18T00:53:23.505Z,17.35
2024-02-18T00:53:37.505Z,17.58
2024-02-18T00:53:50.815Z,16.30
2024-02-18T00:54:03.840Z,15.68
2024-02-18T00:54:17.068Z,14.82
2024-02-18T00:54:30.086Z,14.48
2024-02-18T00:54:43.196Z,15.20
2024-02-18T00:54:56.478Z,15.43
2024-02-18T00:55:10.168Z,14.60
2024-02-18T00:55:24.300Z,14.23
2024-02-18T00:55:37.346Z,14.77
2024-02-18T00:55:50.548Z,15.65
2024-02-18T00:56:03.584Z,15.50
2024-02-18T00:56:16.568Z,15.35
2024-02-18T00:56:29.602Z,16.48
2024-02-18T00:56:42.597Z,16.25
2024-02-18T00:56:55.551Z,16.27
2024-02-18T00:57:09.565Z,15.80
2024-02-18T00:57:23.244Z,17.98
2024-02-18T00:57:36.723Z,19.15
2024-02-18T00:57:49.755Z,17.27
2024-02-18T00:58:03.786Z,16.10
2024-02-18T00:58:17.066Z,17.58
2024-02-18T00:58:30.032Z,16.88
2024-02-18T00:58:42.989Z,15.95
2024-02-18T00:58:57.044Z,16.65
2024-02-18T00:59:10.196Z,16.83
2024-02-18T00:59:24.049Z,16.73
2024-02-18T00:59:37.107Z,16.80
2024-02-18T00:59:50.216Z,17.30
2024-02-18T01:00:03.867Z,17.13
2024-02-18T01:00:17.523Z,15.80
2024-02-18T01:00:30.673Z,15.13
2024-02-18T01:00:44.889Z,15.80
2024-02-18T01:00:58.191Z,16.50
2024-02-18T01:01:11.544Z,17.27
2024-02-18T01:01:24.796Z,17.52
2024-02-18T01:01:38.126Z,16.13
2024-02-18T01:01:51.321Z,15.68
2024-02-18T01:02:04.786Z,15.48
2024-02-18T01:02:17.863Z,15.65
2024-02-18T01:02:31.579Z,15.63
2024-02-18T01:02:45.815Z,15.52
2024-02-18T01:02:58.835Z,15.55
2024-02-18T01:03:11.876Z,15.98
2024-02-18T01:03:24.877Z,15.65
2024-02-18T01:03:38.022Z,15.75
2024-02-18T01:03:51.002Z,16.48
2024-02-18T01:04:04.425Z,18.42
2024-02-18T01:04:17.486Z,18.45
2024-02-18T01:04:31.495Z,17.05
2024-02-18T01:04:44.797Z,17.45
2024-02-18T01:04:57.889Z,17.60
2024-02-18T01:05:11.879Z,17.17
2024-02-18T01:05:25.170Z,16.65
2024-02-18T01:05:39.653Z,17.35
2024-02-18T01:05:53.098Z,17.60
2024-02-18T01:06:06.447Z,16.08
2024-02-18T01:06:19.546Z,15.50
2024-02-18T01:06:32.903Z,16.08
2024-02-18T01:06:45.959Z,17.52
2024-02-18T01:07:00.015Z,18.52
2024-02-18T01:07:13.074Z,18.45
2024-02-18T01:07:26.683Z,17.88
2024-02-18T01:07:39.638Z,16.85
2024-02-18T01:07:53.342Z,16.15
2024-02-18T01:08:06.620Z,15.95
2024-02-18T01:08:19.898Z,15.98
2024-02-18T01:08:32.902Z,15.55
2024-02-18T01:08:45.937Z,16.83
2024-02-18T01:08:59.978Z,16.23
2024-02-18T01:09:13.118Z,16.52
2024-02-18T01:09:26.159Z,17.63
2024-02-18T01:09:39.184Z,17.50
2024-02-18T01:09:52.589Z,16.13
2024-02-18T01:10:06.942Z,15.48
2024-02-18T01:10:20.131Z,17.08
2024-02-18T01:10:33.118Z,16.95
2024-02-18T01:10:46.593Z,16.58
2024-02-18T01:11:00.770Z,15.07
2024-02-18T01:11:13.859Z,15.98
2024-02-18T01:11:27.186Z,16.83
2024-02-18T01:11:40.364Z,17.88
2024-02-18T01:11:54.461Z,19.15
2024-02-18T01:12:08.048Z,17.95
2024-02-18T01:12:21.124Z,17.50
2024-02-18T01:12:34.096Z,20.13
2024-02-18T01:12:48.331Z,18.88
2024-02-18T01:13:01.406Z,19.05
2024-02-18T01:13:15.502Z,20.95
2024-02-18T01:13:28.475Z,19.80
2024-02-18T01:13:41.522Z,18.55
2024-02-18T01:13:54.508Z,21.30
2024-02-18T01:14:07.495Z,22.67
2024-02-18T01:14:21.010Z,24.67
2024-02-18T01:14:34.018Z,25.83
2024-02-18T01:14:47.095Z,25.48
2024-02-18T01:15:01.361Z,23.33
2024-02-18T01:15:14.699Z,23.30
2024-02-18T01:15:27.817Z,24.42
2024-02-18T01:15:41.357Z,24.17
2024-02-18T01:15:54.329Z,23.63
2024-02-18T01:16:10.823Z,24.10
2024-02-18T01:16:23.795Z,26.13
2024-02-18T01:16:37.705Z,27.38
2024-02-18T01:16:52.274Z,27.23
2024-02-18T01:17:05.361Z,26.77
2024-02-18T01:17:19.532Z,29.75
2024-02-18T01:17:32.829Z,33.16
2024-02-18T01:17:45.910Z,34.20
2024-02-18T01:17:59.005Z,32.30
2024-02-18T01:18:12.144Z,32.08
2024-02-18T01:18:25.394Z,32.78
2024-02-18T01:18:44.103Z,33.25
2024-02-18T01:18:58.779Z,32.05
2024-02-18T01:19:12.381Z,33.03
2024-02-18T01:19:25.950Z,32.97
2024-02-18T01:19:39.147Z,33.70
2024-02-18T01:19:58.756Z,32.35
2024-02-18T01:20:12.239Z,29.33
2024-02-18T01:20:25.256Z,30.73
2024-02-18T01:20:40.653Z,32.90
2024-02-18T01:20:53.648Z,31.52
2024-02-18T01:21:06.632Z,29.35
2024-02-18T01:21:19.777Z,27.13
2024-02-18T01:21:32.823Z,28.35
2024-02-18T01:21:45.806Z,30.35
2024-02-18T01:21:58.974Z,31.55
2024-02-18T01:22:11.957Z,32.03
2024-02-18T01:22:25.283Z,33.33
2024-02-18T01:22:39.306Z,33.72
2024-02-18T01:22:52.633Z,32.85
2024-02-18T01:23:05.893Z,34.83
2024-02-18T01:23:18.983Z,35.15
2024-02-18T01:23:31.936Z,31.65
2024-02-18T01:23:44.921Z,28.65
2024-02-18T01:23:57.854Z,25.38
2024-02-18T01:24:10.837Z,26.52
2024-02-18T01:24:24.775Z,29.35
2024-02-18T01:24:38.261Z,28.33
2024-02-18T01:24:51.402Z,26.73
2024-02-18T01:25:05.042Z,25.48
2024-02-18T01:25:18.028Z,23.75
2024-02-18T01:25:30.957Z,21.98
2024-02-18T01:25:43.856Z,21.52
2024-02-18T01:25:56.993Z,21.65
2024-02-18T01:26:10.249Z,19.02
2024-02-18T01:26:23.622Z,16.15
2024-02-18T01:26:37.789Z,15.98
2024-02-18T01:26:50.732Z,16.92
2024-02-18T01:27:04.022Z,19.05
2024-02-18T01:27:17.217Z,19.55
2024-02-18T01:27:30.184Z,19.30
2024-02-18T01:27:43.355Z,19.45
2024-02-18T01:27:56.516Z,18.38
2024-02-18T01:28:09.518Z,18.73
2024-02-18T01:28:24.586Z,18.63
2024-02-18T01:28:38.577Z,20.13
2024-02-18T01:28:51.652Z,19.70
2024-02-18T01:29:04.839Z,18.20
2024-02-18T01:29:17.823Z,18.00
2024-02-18T01:29:30.830Z,17.25
2024-02-18T01:29:43.861Z,16.38
2024-02-18T01:29:57.252Z,16.90
2024-02-18T01:30:11.255Z,17.00
2024-02-18T01:30:24.358Z,16.83
2024-02-18T01:30:38.404Z,17.02
2024-02-18T01:30:51.689Z,18.13
2024-02-18T01:31:05.163Z,18.48
2024-02-18T01:31:18.221Z,16.63
2024-02-18T01:31:31.176Z,16.08
2024-02-18T01:31:44.305Z,15.77
2024-02-18T01:31:57.436Z,16.08
2024-02-18T01:32:10.495Z,16.33
2024-02-18T01:32:23.437Z,16.35
2024-02-18T01:32:36.428Z,15.43
2024-02-18T01:32:50.674Z,17.98
2024-02-18T01:33:04.165Z,18.17
2024-02-18T01:33:17.232Z,16.60
2024-02-18T01:33:30.694Z,15.68
2024-02-18T01:33:45.225Z,16.55
2024-02-18T01:33:58.340Z,16.80
2024-02-18T01:34:11.450Z,16.13
2024-02-18T01:34:24.658Z,15.57
2024-02-18T01:34:38.827Z,15.30
2024-02-18T01:34:55.636Z,16.25
2024-02-18T01:35:09.116Z,15.90
2024-02-18T01:35:22.755Z,14.88
2024-02-18T01:35:35.736Z,16.23
2024-02-18T01:35:50.215Z,17.35
2024-02-18T01:36:03.208Z,17.83
2024-02-18T01:36:16.354Z,17.30
2024-02-18T01:36:29.325Z,16.42
2024-02-18T01:36:43.405Z,14.98
2024-02-18T01:36:56.865Z,15.65
2024-02-18T01:37:10.080Z,14.43
2024-02-18T01:37:23.141Z,13.40
2024-02-18T01:37:36.113Z,14.13
2024-02-18T01:37:49.121Z,14.80
2024-02-18T01:38:03.321Z,15.57
2024-02-18T01:38:16.356Z,16.05
2024-02-18T01:38:30.332Z,16.40
2024-02-18T01:38:43.326Z,16.75
2024-02-18T01:38:56.616Z,16.58
2024-02-18T01:39:09.623Z,16.70
2024-02-18T01:39:22.687Z,16.08
2024-02-18T01:39:36.192Z,16.65
2024-02-18T01:39:49.302Z,16.42
2024-02-18T01:40:02.420Z,15.76
2024-02-18T01:40:16.614Z,15.02
2024-02-18T01:40:29.842Z,15.15
2024-02-18T01:40:42.774Z,15.70
2024-02-18T01:40:55.809Z,15.75
2024-02-18T01:41:08.806Z,14.98
2024-02-18T01:41:21.807Z,15.10
2024-02-18T01:41:34.790Z,16.23
2024-02-18T01:41:47.809Z,16.45
2024-02-18T01:42:01.933Z,15.82
2024-02-18T01:42:14.979Z,14.70
2024-02-18T01:42:28.047Z,14.20
2024-02-18T01:42:41.408Z,14.82
2024-02-18T01:42:54.493Z,14.57
2024-02-18T01:43:07.521Z,14.13
2024-02-18T01:43:20.513Z,14.30
2024-02-18T01:43:33.548Z,15.27
2024-02-18T01:43:46.584Z,16.08
2024-02-18T01:44:00.600Z,16.85
2024-02-18T01:44:13.913Z,17.02
2024-02-18T01:44:27.241Z,15.25
2024-02-18T01:44:40.190Z,13.68
2024-02-18T01:44:53.161Z,13.98
2024-02-18T01:45:07.478Z,15.27
2024-02-18T01:45:21.205Z,17.33
2024-02-18T01:45:34.268Z,16.10
2024-02-18T01:45:47.842Z,15.38
2024-02-18T01:46:02.553Z,14.68
2024-02-18T01:46:17.122Z,15.30
2024-02-18T01:46:30.870Z,14.85
2024-02-18T01:46:44.568Z,13.15
2024-02-18T01:46:58.009Z,14.90
2024-02-18T01:47:10.992Z,15.18
2024-02-18T01:47:24.386Z,14.32
2024-02-18T01:47:41.141Z,14.57
2024-02-18T01:47:54.544Z,15.38
2024-02-18T01:48:08.777Z,14.70
2024-02-18T01:48:23.322Z,14.63
2024-02-18T01:48:36.723Z,13.88
2024-02-18T01:48:50.623Z,15.13
2024-02-18T01:49:04.920Z,15.73
2024-02-18T01:49:19.896Z,13.32
2024-02-18T01:49:35.144Z,12.80
2024-02-18T01:49:49.834Z,14.40
2024-02-18T01:50:03.635Z,14.23
2024-02-18T01:50:17.243Z,13.18
2024-02-18T01:50:30.904Z,13.43
2024-02-18T01:50:45.346Z,13.50
2024-02-18T01:51:00.026Z,14.50
2024-02-18T01:51:15.017Z,14.88
2024-02-18T01:51:28.177Z,13.95
2024-02-18T01:51:41.267Z,12.45
2024-02-18T01:51:54.763Z,11.93
2024-02-18T01:52:09.375Z,12.25
2024-02-18T01:52:23.776Z,13.27
2024-02-18T01:52:38.167Z,14.65
2024-02-18T01:52:53.572Z,14.68
2024-02-18T01:53:07.404Z,14.07
2024-02-18T01:53:21.763Z,13.68
2024-02-18T01:53:36.227Z,14.05
2024-02-18T01:53:49.966Z,13.77
2024-02-18T01:54:04.843Z,14.82
2024-02-18T01:54:18.591Z,14.50
2024-02-18T01:54:34.923Z,14.07
2024-02-18T01:54:49.017Z,14.40
2024-02-18T01:55:04.008Z,13.82
2024-02-18T01:55:18.759Z,12.55
2024-02-18T01:55:33.413Z,12.45
2024-02-18T01:55:47.176Z,13.73
2024-02-18T01:56:00.177Z,14.95
2024-02-18T01:56:15.352Z,15.98
2024-02-18T01:56:28.429Z,14.80
2024-02-18T01:56:43.402Z,14.52
2024-02-18T01:56:56.664Z,14.82
2024-02-18T01:57:10.674Z,15.10
2024-02-18T01:57:26.221Z,15.73
2024-02-18T01:57:39.534Z,14.57
2024-02-18T01:57:53.282Z,14.63
2024-02-18T01:58:06.715Z,14.90
2024-02-18T01:58:20.364Z,14.65
2024-02-18T01:58:34.197Z,14.73
2024-02-18T01:58:47.286Z,15.00
2024-02-18T01:59:00.371Z,14.85
2024-02-18T01:59:13.899Z,14.15
2024-02-18T01:59:28.241Z,14.40
2024-02-18T01:59:43.068Z,15.35
2024-02-18T01:59:57.815Z,15.43
2024-02-18T02:00:15.790Z,15.27
2024-02-18T02:00:29.383Z,15.80
2024-02-18T02:00:44.142Z,15.23
2024-02-18T02:00:57.846Z,14.98
2024-02-18T02:01:12.243Z,14.02
2024-02-18T02:01:26.937Z,12.73
2024-02-18T02:01:40.166Z,14.02
2024-02-18T02:01:53.503Z,13.73
2024-02-18T02:02:06.687Z,13.52
2024-02-18T02:02:19.840Z,14.02
2024-02-18T02:02:34.346Z,14.48
2024-02-18T02:02:50.698Z,14.13
2024-02-18T02:03:04.004Z,13.93
2024-02-18T02:03:17.333Z,13.02
2024-02-18T02:03:31.147Z,13.23
2024-02-18T02:03:45.783Z,14.23
2024-02-18T02:03:59.668Z,13.38
2024-02-18T02:04:12.859Z,13.40
2024-02-18T02:04:28.302Z,13.52
2024-02-18T02:04:42.769Z,12.68
2024-02-18T02:04:56.167Z,13.13
2024-02-18T02:05:13.312Z,12.90
2024-02-18T02:05:27.585Z,12.48
2024-02-18T02:05:43.176Z,13.05
2024-02-18T02:05:58.393Z,12.52
2024-02-18T02:06:15.149Z,12.82
2024-02-18T02:06:30.798Z,13.13
2024-02-18T02:06:46.149Z,12.38
2024-02-18T02:07:00.462Z,11.75
2024-02-18T02:07:13.980Z,11.60
2024-02-18T02:07:27.443Z,11.75
2024-02-18T02:07:40.627Z,12.75
2024-02-18T02:07:54.404Z,12.82
2024-02-18T02:08:07.797Z,13.15
2024-02-18T02:08:24.208Z,13.27
2024-02-18T02:08:37.433Z,12.25
2024-02-18T02:08:50.943Z,12.02
2024-02-18T02:09:04.558Z,14.27
2024-02-18T02:09:18.128Z,13.20
2024-02-18T02:09:31.469Z,12.00
2024-02-18T02:09:45.411Z,12.40
2024-02-18T02:09:58.982Z,12.50
2024-02-18T02:10:13.987Z,11.80
2024-02-18T02:10:27.209Z,11.65
2024-02-18T02:10:40.485Z,12.27
2024-02-18T02:10:53.624Z,11.82
2024-02-18T02:11:06.834Z,11.95
2024-02-18T02:11:20.100Z,11.63
2024-02-18T02:11:33.150Z,11.30
2024-02-18T02:11:46.229Z,11.60
2024-02-18T02:11:59.242Z,12.00
2024-02-18T02:12:12.487Z,11.27
2024-02-18T02:12:27.157Z,11.25
2024-02-18T02:12:40.312Z,11.05
2024-02-18T02:12:53.618Z,11.07
2024-02-18T02:13:07.226Z,11.02
2024-02-18T02:13:26.120Z,12.27
2024-02-18T02:13:43.082Z,12.48
2024-02-18T02:13:57.640Z,11.73
2024-02-18T02:14:11.408Z,11.82
2024-02-18T02:14:26.078Z,11.80
2024-02-18T02:14:40.869Z,12.10
2024-02-18T02:14:55.059Z,12.05
2024-02-18T02:15:10.409Z,11.38
2024-02-18T02:15:23.772Z,11.77
2024-02-18T02:15:37.032Z,11.65
2024-02-18T02:15:50.439Z,11.23
2024-02-18T02:16:03.957Z,11.05
2024-02-18T02:16:18.455Z,11.35
2024-02-18T02:16:31.447Z,11.20
2024-02-18T02:16:45.058Z,11.32
2024-02-18T02:16:58.163Z,12.70
2024-02-18T02:17:15.406Z,12.63
2024-02-18T02:17:28.335Z,12.63
2024-02-18T02:17:41.515Z,12.85
2024-02-18T02:17:54.816Z,11.32
2024-02-18T02:18:08.898Z,10.50
2024-02-18T02:18:22.090Z,10.85
2024-02-18T02:18:35.682Z,10.65
2024-02-18T02:18:48.907Z,10.73
2024-02-18T02:19:02.042Z,10.73
2024-02-18T02:19:15.072Z,11.15
2024-02-18T02:19:28.448Z,12.45
2024-02-18T02:19:41.895Z,12.32
2024-02-18T02:19:54.993Z,11.52
2024-02-18T02:20:11.133Z,11.32
2024-02-18T02:20:25.680Z,11.38
2024-02-18T02:20:38.703Z,10.50
2024-02-18T02:20:51.890Z,11.18
2024-02-18T02:21:05.455Z,11.20
2024-02-18T02:21:20.030Z,10.85
2024-02-18T02:21:33.077Z,11.68
2024-02-18T02:21:46.189Z,11.48
2024-02-18T02:21:59.224Z,10.68
2024-02-18T02:22:12.308Z,10.65
2024-02-18T02:22:25.277Z,10.23
2024-02-18T02:22:39.511Z,10.73
2024-02-18T02:22:52.503Z,12.13
2024-02-18T02:23:06.987Z,12.73
2024-02-18T02:23:20.234Z,13.00
2024-02-18T02:23:35.288Z,12.40
2024-02-18T02:23:48.593Z,11.50
2024-02-18T02:24:01.619Z,11.73
2024-02-18T02:24:14.917Z,12.68
2024-02-18T02:24:28.010Z,13.88
2024-02-18T02:24:41.090Z,13.82
2024-02-18T02:24:55.252Z,12.52
2024-02-18T02:25:11.405Z,12.18
2024-02-18T02:25:24.504Z,12.65
2024-02-18T02:25:37.568Z,12.85
2024-02-18T02:25:52.816Z,12.32
2024-02-18T02:26:06.395Z,11.57
2024-02-18T02:26:21.814Z,12.48
2024-02-18T02:26:38.866Z,12.95
2024-02-18T02:26:57.423Z,12.32
2024-02-18T02:27:15.319Z,13.30
2024-02-18T02:27:35.408Z,13.90
2024-02-18T02:27:54.718Z,12.27
2024-02-18T02:28:13.920Z,13.05
2024-02-18T02:28:27.617Z,13.57
2024-02-18T02:28:46.884Z,14.57
2024-02-18T02:29:12.675Z,14.80
2024-02-18T02:29:25.959Z,14.93
2024-02-18T02:29:39.520Z,14.02
2024-02-18T02:29:53.449Z,12.75
2024-02-18T02:30:07.420Z,11.75
2024-02-18T02:30:20.727Z,11.27
2024-02-18T02:30:34.107Z,12.05
2024-02-18T02:30:47.817Z,12.30
2024-02-18T02:31:02.034Z,13.18
2024-02-18T02:31:16.487Z,12.57
2024-02-18T02:31:29.625Z,12.45
2024-02-18T02:31:43.803Z,15.50
2024-02-18T02:31:58.676Z,14.50
2024-02-18T02:32:11.756Z,13.80
2024-02-18T02:32:24.703Z,14.82
2024-02-18T02:32:37.856Z,13.85
2024-02-18T02:32:50.918Z,13.10
2024-02-18T02:33:04.237Z,14.00
2024-02-18T02:33:18.484Z,13.55
2024-02-18T02:33:32.583Z,14.35
2024-02-18T02:33:45.992Z,14.95
2024-02-18T02:33:59.032Z,14.68
2024-02-18T02:34:12.341Z,14.85
2024-02-18T02:34:25.501Z,13.73
2024-02-18T02:34:38.633Z,14.13
2024-02-18T02:34:53.866Z,12.93
2024-02-18T02:35:08.213Z,12.38
2024-02-18T02:35:23.325Z,13.48
2024-02-18T02:35:38.310Z,14.13
2024-02-18T02:35:51.555Z,14.48
2024-02-18T02:36:06.312Z,14.98
2024-02-18T02:36:19.446Z,15.23
2024-02-18T02:36:32.497Z,14.90
2024-02-18T02:36:45.508Z,13.65
2024-02-18T02:36:58.554Z,13.82
2024-02-18T02:37:12.597Z,13.95
2024-02-18T02:37:25.647Z,13.18
2024-02-18T02:37:38.868Z,13.40
2024-02-18T02:37:51.790Z,14.68
2024-02-18T02:38:05.047Z,14.98
2024-02-18T02:38:18.034Z,13.32
2024-02-18T02:38:31.343Z,12.88
2024-02-18T02:38:44.294Z,14.02
2024-02-18T02:38:58.846Z,15.63
2024-02-18T02:39:12.980Z,15.43
2024-02-18T02:39:26.219Z,14.38
2024-02-18T02:39:39.398Z,13.52
2024-02-18T02:39:52.539Z,14.52
2024-02-18T02:40:06.525Z,15.18
2024-02-18T02:40:19.699Z,15.07
2024-02-18T02:40:33.004Z,16.90
2024-02-18T02:40:46.008Z,17.77
2024-02-18T02:40:59.997Z,16.98
2024-02-18T02:41:13.102Z,13.55
2024-02-18T02:41:26.154Z,13.13
2024-02-18T02:41:39.266Z,14.85
2024-02-18T02:41:52.490Z,15.27
2024-02-18T02:42:06.570Z,13.60
2024-02-18T02:42:19.634Z,13.68
2024-02-18T02:42:34.208Z,14.75
2024-02-18T02:42:48.661Z,14.75
2024-02-18T02:43:02.629Z,14.05
2024-02-18T02:43:17.722Z,14.02
2024-02-18T02:43:31.074Z,13.82
2024-02-18T02:43:44.024Z,15.00
2024-02-18T02:43:57.106Z,16.77
2024-02-18T02:44:13.059Z,17.20
2024-02-18T02:44:27.070Z,14.80
2024-02-18T02:44:40.075Z,13.98
2024-02-18T02:44:52.983Z,14.15
2024-02-18T02:45:06.777Z,13.48
2024-02-18T02:45:19.786Z,15.15
2024-02-18T02:45:32.931Z,15.65
2024-02-18T02:45:46.234Z,15.20
2024-02-18T02:46:00.737Z,16.48
2024-02-18T02:46:13.793Z,17.13
2024-02-18T02:46:27.012Z,15.55
2024-02-18T02:46:40.624Z,16.00
2024-02-18T02:46:54.058Z,15.20
2024-02-18T02:47:07.275Z,15.30
2024-02-18T02:47:20.375Z,17.15
2024-02-18T02:47:33.411Z,16.68
2024-02-18T02:47:46.418Z,14.98
2024-02-18T02:48:00.789Z,13.57
2024-02-18T02:48:13.829Z,14.27
2024-02-18T02:48:26.850Z,14.10
2024-02-18T02:48:39.901Z,14.77
2024-02-18T02:48:52.970Z,16.90
2024-02-18T02:49:06.087Z,17.83
2024-02-18T02:49:19.606Z,16.83
2024-02-18T02:49:32.845Z,15.45
2024-02-18T02:49:45.962Z,14.68
2024-02-18T02:50:00.897Z,15.30
2024-02-18T02:50:14.089Z,15.50
2024-02-18T02:50:27.296Z,14.14
2024-02-18T02:50:40.272Z,15.68
2024-02-18T02:50:53.208Z,15.68
2024-02-18T02:51:06.472Z,15.30
2024-02-18T02:51:20.599Z,15.00
2024-02-18T02:51:33.659Z,15.90
2024-02-18T02:51:47.818Z,16.90
2024-02-18T02:52:01.342Z,16.02
2024-02-18T02:52:14.417Z,15.18
2024-02-18T02:52:27.385Z,15.68
2024-02-18T02:52:41.861Z,14.77
2024-02-18T02:52:55.373Z,14.35
2024-02-18T02:53:08.368Z,16.05
2024-02-18T02:53:21.326Z,16.83
2024-02-18T02:53:35.338Z,17.33
2024-02-18T02:53:48.352Z,17.45
2024-02-18T02:54:01.308Z,17.55
2024-02-18T02:54:14.374Z,17.70
2024-02-18T02:54:27.330Z,15.75
2024-02-18T02:54:40.739Z,14.82
2024-02-18T02:54:55.272Z,15.77
2024-02-18T02:55:09.472Z,15.98
2024-02-18T02:55:23.629Z,17.27
2024-02-18T02:55:36.601Z,17.38
2024-02-18T02:55:49.563Z,17.65
2024-02-18T02:56:02.658Z,17.98
2024-02-18T02:56:15.827Z,18.17
2024-02-18T02:56:29.092Z,17.75
2024-02-18T02:56:42.052Z,16.48
2024-02-18T02:56:55.110Z,16.73
2024-02-18T02:57:09.129Z,16.60
2024-02-18T02:57:22.306Z,16.77
2024-02-18T02:57:35.323Z,16.45
2024-02-18T02:57:49.773Z,15.82
2024-02-18T02:58:03.139Z,14.90
2024-02-18T02:58:16.582Z,13.88